createdAt,value
2018-05-04T00:00:45.077Z,91.60
2018-05-04T00:03:12.576Z,91.60
2018-05-04T00:05:40.113Z,91.40
2018-05-04T00:08:07.629Z,91.60
2018-05-04T00:10:35.226Z,91.60
2018-05-04T00:13:02.743Z,91.50
2018-05-04T00:15:30.249Z,91.70
2018-05-04T00:17:58.575Z,91.50
2018-05-04T00:20:26.084Z,91.60
2018-05-04T00:22:53.620Z,91.60
2018-05-04T00:25:21.180Z,91.60
2018-05-04T00:27:48.689Z,92.00
2018-05-04T00:30:16.986Z,92.50
2018-05-04T00:32:44.504Z,92.50
2018-05-04T00:35:12.782Z,92.30
2018-05-04T00:37:40.312Z,92.20
2018-05-04T00:40:07.854Z,92.20
2018-05-04T00:42:35.413Z,92.30
2018-05-04T00:45:02.934Z,92.40
2018-05-04T00:47:31.238Z,92.50
2018-05-04T00:49:58.733Z,92.50
2018-05-04T00:52:26.318Z,92.20
2018-05-04T00:54:54.734Z,92.00
2018-05-04T00:57:22.247Z,92.00
2018-05-04T00:59:50.534Z,92.10
2018-05-04T01:02:18.922Z,92.20
2018-05-04T01:04:46.446Z,92.20
2018-05-04T01:07:13.964Z,92.30
2018-05-04T01:09:41.504Z,92.10
2018-05-04T01:12:09.881Z,92.30
2018-05-04T01:14:38.029Z,92.60
2018-05-04T01:17:05.551Z,92.60
2018-05-04T01:19:33.093Z,92.60
2018-05-04T01:22:00.634Z,92.40
2018-05-04T01:24:28.130Z,92.20
2018-05-04T01:26:55.647Z,92.20
2018-05-04T01:29:23.158Z,92.30
2018-05-04T01:31:51.452Z,92.60
2018-05-04T01:34:18.964Z,92.50
2018-05-04T01:36:46.500Z,92.80
2018-05-04T01:39:13.995Z,92.80
2018-05-04T01:41:41.524Z,92.80
2018-05-04T01:44:09.107Z,92.90
2018-05-04T01:46:36.652Z,93.00
2018-05-04T01:49:04.795Z,93.20
2018-05-04T01:51:32.364Z,93.10
2018-05-04T01:53:59.878Z,92.80
2018-05-04T01:56:27.378Z,92.90
2018-05-04T01:58:55.386Z,92.90
2018-05-04T02:01:23.027Z,93.20
2018-05-04T02:03:50.541Z,93.20
2018-05-04T02:06:18.811Z,93.70
2018-05-04T02:08:46.453Z,93.70
2018-05-04T02:11:13.970Z,94.40
2018-05-04T02:13:41.490Z,94.40
2018-05-04T02:16:09.019Z,94.10
2018-05-04T02:18:36.593Z,93.70
2018-05-04T02:21:04.046Z,93.50
2018-05-04T02:23:31.561Z,93.20
2018-05-04T02:25:59.084Z,93.30
2018-05-04T02:28:27.371Z,92.90
2018-05-04T02:30:55.639Z,93.00
2018-05-04T02:33:23.926Z,93.20
2018-05-04T02:35:52.205Z,93.40
2018-05-04T02:38:19.729Z,93.40
2018-05-04T02:40:47.346Z,93.60
2018-05-04T02:43:14.868Z,93.60
2018-05-04T02:45:43.141Z,93.50
2018-05-04T02:48:10.684Z,93.50
2018-05-04T02:50:38.210Z,93.50
2018-05-04T02:53:05.736Z,93.50
2018-05-04T02:55:33.308Z,93.80
2018-05-04T02:58:00.799Z,93.50
2018-05-04T03:00:28.327Z,93.50
2018-05-04T03:02:55.841Z,93.70
2018-05-04T03:05:24.136Z,93.70
2018-05-04T03:07:51.663Z,93.70
2018-05-04T03:10:19.200Z,93.40
2018-05-04T03:12:47.665Z,93.70
2018-05-04T03:15:15.193Z,93.90
2018-05-04T03:17:43.477Z,93.80
2018-05-04T03:20:10.997Z,93.80
2018-05-04T03:22:38.585Z,93.70
2018-05-04T03:25:06.883Z,93.80
2018-05-04T03:27:34.397Z,93.70
2018-05-04T03:30:01.925Z,93.70
2018-05-04T03:32:29.435Z,93.90
2018-05-04T03:34:57.720Z,93.80
2018-05-04T03:37:25.269Z,93.80
2018-05-04T03:39:53.555Z,93.80
2018-05-04T03:42:21.105Z,93.80
2018-05-04T03:44:49.381Z,94.30
2018-05-04T03:47:17.660Z,94.20
2018-05-04T03:49:45.943Z,94.20
2018-05-04T03:52:13.471Z,94.20
2018-05-04T03:54:41.013Z,94.10
2018-05-04T03:57:20.350Z,93.80
2018-05-04T03:59:59.746Z,93.70
2018-05-04T04:02:39.041Z,93.70
2018-05-04T04:05:06.565Z,93.90
2018-05-04T04:07:34.068Z,94.30
2018-05-04T04:10:01.594Z,94.30
2018-05-04T04:12:29.119Z,94.50
2018-05-04T04:14:56.731Z,94.50
2018-05-04T04:17:25.037Z,94.80
2018-05-04T04:19:52.551Z,94.80
2018-05-04T04:22:20.061Z,95.00
2018-05-04T04:24:47.575Z,95.00
2018-05-04T04:27:15.386Z,94.80
2018-05-04T04:29:42.893Z,94.80
2018-05-04T04:32:10.418Z,94.70
2018-05-04T04:34:37.939Z,94.60
2018-05-04T04:37:05.457Z,94.50
2018-05-04T04:39:32.993Z,94.40
2018-05-04T04:42:00.508Z,94.50
2018-05-04T04:44:28.033Z,94.60
2018-05-04T04:46:55.557Z,94.70
2018-05-04T04:49:23.072Z,95.00
2018-05-04T04:51:51.353Z,94.90
2018-05-04T04:54:19.666Z,94.90
2018-05-04T04:56:47.175Z,94.90
2018-05-04T04:59:14.715Z,94.90
2018-05-04T05:01:42.219Z,94.90
2018-05-04T05:04:09.749Z,95.00
2018-05-04T05:06:37.269Z,95.10
2018-05-04T05:09:04.784Z,95.20
2018-05-04T05:11:32.293Z,95.40
2018-05-04T05:13:59.879Z,95.70
2018-05-04T05:16:27.377Z,95.60
2018-05-04T05:18:54.910Z,96.00
2018-05-04T05:21:23.209Z,96.40
2018-05-04T05:23:50.757Z,96.70
2018-05-04T05:26:18.302Z,96.30
2018-05-04T05:28:46.646Z,96.50
2018-05-04T05:31:14.143Z,96.50
2018-05-04T05:33:41.681Z,96.60
2018-05-04T05:36:09.208Z,96.80
2018-05-04T05:38:36.729Z,97.10
2018-05-04T05:41:04.257Z,97.00
2018-05-04T05:43:31.783Z,96.80
2018-05-04T05:45:59.299Z,97.10
2018-05-04T05:48:26.824Z,97.40
2018-05-04T05:50:54.355Z,97.40
2018-05-04T05:53:21.863Z,96.90
2018-05-04T05:55:49.393Z,97.10
2018-05-04T05:58:16.937Z,97.40
2018-05-04T06:00:44.471Z,97.60
2018-05-04T06:03:11.988Z,97.80
2018-05-04T06:05:39.529Z,97.60
2018-05-04T06:08:07.093Z,97.60
2018-05-04T06:10:34.635Z,97.70
2018-05-04T06:13:02.156Z,97.60
2018-05-04T06:15:29.715Z,97.20
2018-05-04T06:17:57.245Z,97.70
2018-05-04T06:20:24.801Z,97.30
2018-05-04T06:22:52.313Z,97.10
2018-05-04T06:25:19.850Z,96.80
2018-05-04T06:27:47.364Z,96.60
2018-05-04T06:30:14.889Z,96.40
2018-05-04T06:32:42.423Z,96.30
2018-05-04T06:35:09.938Z,96.20
2018-05-04T06:37:37.464Z,96.20
2018-05-04T06:40:04.985Z,96.30
2018-05-04T06:42:32.513Z,96.20
2018-05-04T06:45:00.039Z,96.00
2018-05-04T06:47:27.564Z,95.40
2018-05-04T06:49:55.124Z,94.90
2018-05-04T06:52:22.661Z,95.00
2018-05-04T06:54:50.169Z,95.00
2018-05-04T06:57:17.713Z,94.80
2018-05-04T06:59:45.231Z,94.60
2018-05-04T07:02:12.759Z,94.40
2018-05-04T07:04:40.336Z,94.30
2018-05-04T07:07:07.881Z,94.20
2018-05-04T07:09:36.219Z,94.40
2018-05-04T07:12:03.757Z,94.50
2018-05-04T07:14:31.279Z,94.30
2018-05-04T07:16:58.800Z,94.10
2018-05-04T07:19:27.148Z,93.90
2018-05-04T07:21:54.727Z,93.80
2018-05-04T07:24:22.269Z,93.70
2018-05-04T07:26:49.789Z,93.60
2018-05-04T07:29:17.332Z,93.40
2018-05-04T07:31:44.857Z,92.70
2018-05-04T07:34:12.381Z,92.90
2018-05-04T07:36:39.907Z,93.20
2018-05-04T07:39:07.437Z,93.50
2018-05-04T07:41:34.969Z,92.90
2018-05-04T07:44:03.260Z,92.30
2018-05-04T07:46:31.543Z,92.00
2018-05-04T07:48:59.059Z,92.00
2018-05-04T07:51:26.591Z,90.90
2018-05-04T07:53:55.035Z,90.60
2018-05-04T07:56:34.303Z,91.50
2018-05-04T07:59:01.827Z,91.40
2018-05-04T08:01:29.433Z,91.20
2018-05-04T08:03:56.967Z,90.50
2018-05-04T08:06:24.549Z,90.00
2018-05-04T08:08:52.089Z,89.00
2018-05-04T08:11:19.627Z,87.90
2018-05-04T08:13:47.129Z,87.80
2018-05-04T08:16:14.665Z,87.70
2018-05-04T08:18:42.199Z,90.10
2018-05-04T08:21:09.713Z,89.90
2018-05-04T08:23:37.233Z,87.90
2018-05-04T08:26:04.765Z,85.10
2018-05-04T08:28:33.054Z,84.20
2018-05-04T08:31:00.576Z,84.10
2018-05-04T08:33:28.095Z,82.90
2018-05-04T08:35:55.617Z,76.90
2018-05-04T08:38:23.897Z,74.80
2018-05-04T08:40:52.232Z,73.80
2018-05-04T08:43:19.751Z,73.80
2018-05-04T08:45:47.272Z,72.20
2018-05-04T08:48:15.618Z,69.10
2018-05-04T08:50:43.332Z,69.10
2018-05-04T08:53:10.905Z,67.30
2018-05-04T08:55:38.438Z,65.00
2018-05-04T08:58:05.945Z,67.90
2018-05-04T09:00:33.475Z,64.60
2018-05-04T09:03:01.001Z,60.90
2018-05-04T09:05:29.475Z,61.10
2018-05-04T09:07:56.822Z,61.00
2018-05-04T09:10:24.342Z,60.90
2018-05-04T09:12:51.963Z,60.80
2018-05-04T09:15:19.384Z,61.70
2018-05-04T09:17:46.911Z,62.00
2018-05-04T09:20:14.545Z,64.40
2018-05-04T09:22:42.621Z,62.30
2018-05-04T09:25:11.558Z,62.90
2018-05-04T09:27:39.115Z,62.90
2018-05-04T09:30:06.638Z,62.30
2018-05-04T09:32:34.164Z,62.80
2018-05-04T09:35:01.708Z,60.80
2018-05-04T09:37:29.254Z,59.40
2018-05-04T09:39:56.778Z,59.40
2018-05-04T09:42:24.329Z,59.60
2018-05-04T09:44:51.833Z,59.80
2018-05-04T09:47:19.361Z,59.30
2018-05-04T09:49:46.898Z,60.50
2018-05-04T09:52:15.208Z,58.20
2018-05-04T09:54:42.758Z,58.20
2018-05-04T09:57:10.274Z,58.60
2018-05-04T09:59:37.781Z,59.60
2018-05-04T10:02:05.293Z,60.80
2018-05-04T10:04:32.841Z,60.80
2018-05-04T10:07:00.375Z,58.20
2018-05-04T10:09:28.008Z,57.00
2018-05-04T10:11:55.567Z,58.70
2018-05-04T10:14:23.100Z,59.70
2018-05-04T10:16:50.625Z,60.30
2018-05-04T10:19:18.137Z,58.90
2018-05-04T10:21:45.673Z,59.30
2018-05-04T10:24:13.980Z,58.50
2018-05-04T10:26:41.505Z,58.50
2018-05-04T10:29:09.026Z,58.70
2018-05-04T10:31:37.600Z,57.40
2018-05-04T10:34:05.123Z,58.60
2018-05-04T10:36:32.637Z,57.80
2018-05-04T10:39:00.756Z,56.90
2018-05-04T10:41:28.221Z,57.50
2018-05-04T10:43:55.767Z,56.90
2018-05-04T10:46:23.293Z,56.30
2018-05-04T10:48:51.793Z,57.10
2018-05-04T10:51:20.082Z,56.60
2018-05-04T10:53:47.591Z,56.60
2018-05-04T10:56:15.194Z,57.50
2018-05-04T10:58:43.619Z,56.50
2018-05-04T11:01:11.326Z,58.40
2018-05-04T11:03:39.682Z,57.90
2018-05-04T11:06:07.157Z,57.90
2018-05-04T11:08:35.677Z,56.10
2018-05-04T11:11:03.980Z,56.10
2018-05-04T11:13:31.473Z,57.70
2018-05-04T11:15:59.763Z,57.80
2018-05-04T11:18:27.287Z,57.70
2018-05-04T11:20:54.820Z,59.50
2018-05-04T11:23:22.379Z,56.10
2018-05-04T11:25:49.915Z,57.40
2018-05-04T11:28:17.445Z,57.40
2018-05-04T11:30:45.723Z,60.80
2018-05-04T11:33:14.007Z,59.20
2018-05-04T11:35:41.548Z,59.10
2018-05-04T11:38:09.142Z,60.80
2018-05-04T11:40:36.665Z,60.20
2018-05-04T11:43:04.205Z,58.60
2018-05-04T11:45:31.743Z,56.90
2018-05-04T11:47:59.337Z,57.30
2018-05-04T11:50:27.648Z,58.30
2018-05-04T11:52:55.163Z,58.20
2018-05-04T11:55:23.352Z,58.20
2018-05-04T11:57:51.643Z,61.20
2018-05-04T12:00:19.260Z,61.10
2018-05-04T12:02:46.770Z,63.50
2018-05-04T12:05:14.301Z,61.20
2018-05-04T12:07:41.854Z,60.60
2018-05-04T12:10:09.391Z,62.70
2018-05-04T12:12:36.925Z,59.10
2018-05-04T12:15:04.451Z,62.70
2018-05-04T12:17:32.729Z,56.00
2018-05-04T12:20:01.024Z,58.10
2018-05-04T12:22:28.591Z,58.20
2018-05-04T12:24:56.113Z,57.10
2018-05-04T12:27:24.402Z,58.80
2018-05-04T12:29:51.936Z,58.80
2018-05-04T12:32:19.488Z,55.50
2018-05-04T12:34:47.802Z,55.10
2018-05-04T12:37:15.343Z,55.10
2018-05-04T12:39:42.931Z,55.10
2018-05-04T12:42:10.490Z,56.70
2018-05-04T12:44:38.014Z,56.60
2018-05-04T12:47:06.329Z,56.20
2018-05-04T12:49:33.829Z,56.20
2018-05-04T12:52:01.355Z,56.30
2018-05-04T12:54:29.725Z,56.70
2018-05-04T12:56:57.253Z,56.70
2018-05-04T12:59:24.868Z,56.50
2018-05-04T13:01:52.393Z,54.60
2018-05-04T13:04:19.941Z,55.80
2018-05-04T13:06:47.495Z,55.90
2018-05-04T13:09:15.009Z,55.10
2018-05-04T13:11:42.640Z,52.70
2018-05-04T13:14:10.177Z,53.00
2018-05-04T13:16:37.709Z,52.50
2018-05-04T13:19:05.282Z,53.50
2018-05-04T13:21:33.575Z,54.10
2018-05-04T13:24:01.106Z,54.10
2018-05-04T13:26:28.640Z,51.80
2018-05-04T13:28:56.157Z,50.10
2018-05-04T13:31:23.690Z,50.80
2018-05-04T13:33:51.729Z,51.40
2018-05-04T13:36:19.319Z,49.00
2018-05-04T13:38:47.709Z,49.20
2018-05-04T13:41:15.241Z,49.10
2018-05-04T13:43:43.473Z,45.70
2018-05-04T13:46:10.997Z,45.70
2018-05-04T13:48:38.609Z,45.70
2018-05-04T13:51:06.971Z,45.70
2018-05-04T13:53:34.411Z,45.60
2018-05-04T13:56:01.928Z,45.00
2018-05-04T13:58:30.282Z,44.20
2018-05-04T14:00:57.799Z,43.60
2018-05-04T14:03:26.041Z,42.60
2018-05-04T14:05:53.587Z,41.60
2018-05-04T14:08:21.108Z,41.90
2018-05-04T14:10:49.367Z,42.70
2018-05-04T14:13:16.891Z,42.60
2018-05-04T14:15:44.467Z,42.80
2018-05-04T14:18:12.911Z,42.20
2018-05-04T14:20:40.433Z,41.80
2018-05-04T14:23:07.963Z,44.00
2018-05-04T14:25:35.545Z,40.50
2018-05-04T14:28:03.103Z,41.30
2018-05-04T14:30:31.214Z,41.90
2018-05-04T14:32:58.728Z,42.50
2018-05-04T14:35:27.563Z,40.80
2018-05-04T14:37:55.904Z,40.70
2018-05-04T14:40:23.423Z,40.60
2018-05-04T14:42:51.024Z,39.40
2018-05-04T14:45:18.493Z,40.30
2018-05-04T14:47:46.010Z,37.70
2018-05-04T14:50:13.543Z,39.10
2018-05-04T14:52:42.241Z,40.70
2018-05-04T14:55:10.601Z,39.40
2018-05-04T14:57:38.143Z,39.30
2018-05-04T15:00:05.710Z,41.10
2018-05-04T15:02:33.225Z,39.80
2018-05-04T15:05:00.773Z,38.70
2018-05-04T15:07:28.353Z,39.60
2018-05-04T15:09:56.713Z,40.30
2018-05-04T15:12:24.301Z,40.30
2018-05-04T15:14:51.863Z,39.40
2018-05-04T15:17:19.391Z,38.50
2018-05-04T15:19:46.916Z,39.60
2018-05-04T15:22:14.513Z,39.80
2018-05-04T15:24:42.049Z,38.70
2018-05-04T15:27:09.575Z,38.00
2018-05-04T15:29:37.119Z,39.40
2018-05-04T15:32:04.654Z,38.70
2018-05-04T15:34:32.167Z,38.20
2018-05-04T15:37:00.506Z,39.20
2018-05-04T15:39:28.015Z,39.00
2018-05-04T15:41:55.615Z,40.60
2018-05-04T15:44:23.251Z,39.80
2018-05-04T15:46:51.589Z,39.50
2018-05-04T15:49:19.117Z,39.40
2018-05-04T15:51:52.358Z,39.40
2018-05-04T15:54:20.696Z,39.80
2018-05-04T15:56:48.241Z,39.90
2018-05-04T15:59:15.778Z,39.90
2018-05-04T16:01:43.326Z,41.00
2018-05-04T16:04:11.525Z,41.30
2018-05-04T16:06:39.126Z,40.70
2018-05-04T16:09:07.409Z,41.50
2018-05-04T16:11:35.003Z,41.50
2018-05-04T16:14:03.303Z,42.60
2018-05-04T16:16:30.818Z,42.50
2018-05-04T16:18:59.136Z,43.30
2018-05-04T16:21:26.688Z,43.40
2018-05-04T16:23:54.204Z,44.40
2018-05-04T16:26:21.747Z,43.90
2018-05-04T16:28:49.380Z,42.50
2018-05-04T16:31:17.050Z,44.50
2018-05-04T16:33:45.702Z,44.40
2018-05-04T16:36:14.351Z,45.80
2018-05-04T16:38:42.560Z,45.80
2018-05-04T16:41:13.555Z,45.00
2018-05-04T16:43:42.590Z,44.90
2018-05-04T16:49:23.378Z,45.50
2018-05-04T16:51:50.950Z,45.80
2018-05-04T16:54:18.476Z,45.30
2018-05-04T16:56:46.367Z,45.20
2018-05-04T16:59:13.932Z,45.80
2018-05-04T17:01:41.540Z,43.60
2018-05-04T17:04:09.127Z,44.20
2018-05-04T17:06:36.991Z,43.10
2018-05-04T17:09:05.503Z,43.90
2018-05-04T17:11:34.248Z,43.90
2018-05-04T17:14:02.308Z,44.40
2018-05-04T17:16:29.864Z,45.00
2018-05-04T17:18:57.937Z,46.00
2018-05-04T17:21:26.368Z,45.30
2018-05-04T17:23:54.044Z,46.50
2018-05-04T17:26:21.652Z,47.60
2018-05-04T17:28:50.002Z,48.10
2018-05-04T17:31:17.599Z,48.10
2018-05-04T17:33:47.056Z,49.10
2018-05-04T17:36:14.592Z,49.10
2018-05-04T17:38:42.123Z,49.40
2018-05-04T17:41:09.650Z,48.90
2018-05-04T17:43:37.175Z,50.00
2018-05-04T17:46:04.747Z,49.90
2018-05-04T17:48:32.400Z,49.60
2018-05-04T17:50:59.965Z,51.10
2018-05-04T17:53:27.500Z,51.10
2018-05-04T17:55:55.037Z,52.00
2018-05-04T17:58:23.424Z,52.90
2018-05-04T18:00:50.946Z,52.80
2018-05-04T18:03:18.488Z,53.20
2018-05-04T18:05:46.029Z,54.50
2018-05-04T18:08:13.556Z,54.60
2018-05-04T18:10:41.842Z,54.80
2018-05-04T18:13:09.392Z,54.80
2018-05-04T18:15:37.081Z,55.10
2018-05-04T18:18:04.635Z,54.70
2018-05-04T18:20:32.180Z,55.60
2018-05-04T18:22:59.710Z,55.00
2018-05-04T18:25:27.222Z,55.80
2018-05-04T18:27:54.748Z,56.40
2018-05-04T18:30:23.121Z,57.60
2018-05-04T18:32:51.471Z,55.90
2018-05-04T18:35:18.993Z,55.90
2018-05-04T18:37:46.544Z,56.20
2018-05-04T18:40:14.049Z,54.80
2018-05-04T18:42:41.566Z,55.30
2018-05-04T18:45:09.102Z,55.60
2018-05-04T18:47:36.636Z,55.40
2018-05-04T18:50:04.323Z,55.00
2018-05-04T18:52:31.860Z,54.90
2018-05-04T18:55:00.170Z,54.90
2018-05-04T18:57:27.720Z,54.80
2018-05-04T18:59:55.233Z,54.90
2018-05-04T19:02:29.914Z,55.20
2018-05-04T19:04:57.427Z,55.60
2018-05-04T19:07:25.025Z,55.70
2018-05-04T19:09:52.635Z,55.60
2018-05-04T19:12:20.159Z,56.10
2018-05-04T19:14:47.990Z,56.50
2018-05-04T19:17:15.638Z,56.10
2018-05-04T19:19:44.096Z,57.40
2018-05-04T19:22:11.737Z,57.40
2018-05-04T19:24:39.304Z,57.30
2018-05-04T19:27:06.888Z,57.40
2018-05-04T19:29:35.327Z,58.30
2018-05-04T19:32:03.031Z,58.30
2018-05-04T19:34:32.122Z,58.40
2018-05-04T19:37:01.409Z,58.80
2018-05-04T19:39:29.010Z,58.80
2018-05-04T19:41:56.668Z,59.20
2018-05-04T19:44:24.283Z,59.40
2018-05-04T19:46:51.897Z,59.60
2018-05-04T19:49:19.509Z,59.80
2018-05-04T19:51:47.046Z,60.10
2018-05-04T19:54:14.652Z,60.90
2018-05-04T19:56:43.005Z,61.10
2018-05-04T19:59:10.521Z,61.10
2018-05-04T20:01:38.056Z,62.00
2018-05-04T20:04:06.363Z,62.70
2018-05-04T20:06:33.975Z,62.60
2018-05-04T20:09:01.505Z,62.70
2018-05-04T20:11:29.023Z,62.70
2018-05-04T20:13:56.550Z,63.00
2018-05-04T20:16:24.075Z,62.90
2018-05-04T20:18:51.687Z,63.70
2018-05-04T20:21:19.181Z,63.80
2018-05-04T20:23:46.706Z,64.20
2018-05-04T20:26:14.987Z,64.40
2018-05-04T20:28:42.543Z,64.40
2018-05-04T20:31:10.823Z,65.40
2018-05-04T20:33:39.170Z,65.80
2018-05-04T20:36:06.697Z,65.80
2018-05-04T20:38:34.226Z,66.20
2018-05-04T20:41:01.745Z,66.90
2018-05-04T20:43:29.303Z,67.50
2018-05-04T20:45:56.848Z,67.60
2018-05-04T20:48:24.421Z,68.00
2018-05-04T20:50:51.943Z,68.30
2018-05-04T20:53:19.454Z,69.10
2018-05-04T20:55:46.980Z,69.20
2018-05-04T20:58:15.276Z,70.00
2018-05-04T21:00:42.790Z,70.00
2018-05-04T21:03:10.330Z,70.40
2018-05-04T21:05:37.873Z,70.90
2018-05-04T21:08:06.157Z,71.30
2018-05-04T21:10:34.448Z,71.40
2018-05-04T21:13:01.963Z,71.40
2018-05-04T21:15:29.479Z,71.70
2018-05-04T21:17:57.009Z,71.40
2018-05-04T21:20:24.634Z,71.90
2018-05-04T21:22:52.150Z,72.10
2018-05-04T21:25:19.692Z,71.90
2018-05-04T21:27:47.212Z,72.30
2018-05-04T21:30:14.758Z,72.40
2018-05-04T21:32:42.270Z,72.00
2018-05-04T21:35:09.786Z,72.10
2018-05-04T21:37:37.301Z,72.50
2018-05-04T21:40:04.833Z,71.90
2018-05-04T21:42:33.113Z,71.70
2018-05-04T21:45:00.668Z,71.70
2018-05-04T21:47:28.971Z,71.90
2018-05-04T21:49:56.492Z,71.90
2018-05-04T21:52:24.823Z,72.30
2018-05-04T21:54:52.358Z,72.30
2018-05-04T21:57:19.889Z,71.90
2018-05-04T21:59:47.418Z,72.40
2018-05-04T22:02:14.948Z,72.40
2018-05-04T22:04:42.496Z,73.00
2018-05-04T22:07:10.168Z,73.20
2018-05-04T22:09:37.715Z,73.40
2018-05-04T22:12:05.252Z,73.70
2018-05-04T22:14:32.778Z,73.90
2018-05-04T22:17:00.290Z,73.70
2018-05-04T22:19:27.816Z,74.20
2018-05-04T22:21:55.404Z,74.70
2018-05-04T22:24:22.925Z,75.20
2018-05-04T22:26:50.470Z,75.30
2018-05-04T22:29:17.982Z,75.30
2018-05-04T22:31:45.547Z,75.60
2018-05-04T22:34:13.084Z,75.90
2018-05-04T22:36:40.613Z,76.30
2018-05-04T22:39:08.139Z,76.90
2018-05-04T22:41:35.665Z,76.60
2018-05-04T22:44:03.203Z,76.90
2018-05-04T22:46:30.755Z,77.30
2018-05-04T22:48:59.046Z,76.90
2018-05-04T22:51:26.584Z,76.90
2018-05-04T22:53:54.100Z,77.50
2018-05-04T22:56:22.386Z,77.70
2018-05-04T22:58:49.894Z,77.60
2018-05-04T23:01:18.180Z,77.80
2018-05-04T23:03:45.718Z,77.70
2018-05-04T23:06:13.244Z,78.90
2018-05-04T23:08:40.798Z,78.20
2018-05-04T23:11:08.336Z,79.00
2018-05-04T23:13:35.845Z,79.60
2018-05-04T23:16:04.138Z,81.10
2018-05-04T23:18:32.422Z,81.30
2018-05-04T23:20:59.969Z,81.30
2018-05-04T23:23:27.515Z,81.40
2018-05-04T23:25:55.795Z,82.00
2018-05-04T23:28:24.090Z,83.20
2018-05-04T23:30:51.617Z,83.10
2018-05-04T23:33:19.190Z,83.60
2018-05-04T23:35:47.462Z,84.10
2018-05-04T23:38:15.766Z,84.90
2018-05-04T23:40:43.284Z,84.20
2018-05-04T23:43:10.838Z,84.50
2018-05-04T23:45:38.362Z,84.80
2018-05-04T23:48:06.391Z,85.60
2018-05-04T23:50:34.684Z,84.10
2018-05-04T23:53:02.194Z,84.10
2018-05-04T23:55:29.713Z,83.90
2018-05-04T23:57:57.236Z,84.10
